Time;durP1;ratioP1;P1;durP2;ratioP2;P2;SDS_P1;SDS_P2;PMS_P1;PMS_P2;Temp;Humidity;BMP_temperature;BMP_pressure;BME280_temperature;BME280_humidity;BME280_pressure;Samples;Min_cycle;Max_cycle;Signal;HPM_P1;HPM_P2
2022/07/29 00:01:42;;;;;;;;;;;;;;;21.26;57.34;99594.28;4999063;28;20017;-77
2022/07/29 00:04:11;;;;;;;;;;;;;;;21.24;57.44;99596.13;5016505;28;20330;-77
2022/07/29 00:06:42;;;;;;;;;;;;;;;21.21;57.27;99596.25;5015383;28;19984;-76
2022/07/29 00:09:11;;;;;;;;;;;;;;;21.20;57.27;99586.78;4999007;28;20031;-76
2022/07/29 00:11:40;;;;;;;;;;;;;;;21.17;57.45;99583.47;5016492;28;19925;-77
2022/07/29 00:14:09;;;;;;;;;;;;;;;21.15;57.53;99591.34;4998544;28;19933;-77
2022/07/29 00:16:39;;;;;;;;;;;;;;;21.17;57.42;99594.72;5015924;28;19947;-77
2022/07/29 00:19:08;;;;;;;;;;;;;;;21.17;57.69;99592.09;4998433;28;19936;-77
2022/07/29 00:21:38;;;;;;;;;;;;;;;21.17;57.92;99589.50;5015938;28;19925;-76
2022/07/29 00:24:07;;;;;;;;;;;;;;;21.15;57.95;99590.50;5016617;28;19926;-76
2022/07/29 00:26:35;;;;;;;;;;;;;;;21.14;58.02;99589.66;5016078;28;19929;-76
2022/07/29 00:29:05;;;;;;;;;;;;;;;21.12;58.26;99585.44;5015770;28;19925;-74
2022/07/29 00:31:55;;;;;;;;;;;;;;;21.07;58.24;99588.25;5015822;28;19925;-77
2022/07/29 00:37:02;;;;;;;;;;;;;;;21.03;58.39;99585.81;5015899;28;20292;-76
2022/07/29 00:39:31;;;;;;;;;;;;;;;20.98;58.60;99593.81;5015890;28;19983;-77
2022/07/29 00:41:59;;;;;;;;;;;;;;;21.00;58.52;99584.19;4998418;28;19975;-76
2022/07/29 00:44:28;;;;;;;;;;;;;;;20.98;58.75;99583.44;5015551;28;19972;-76
2022/07/29 00:46:58;;;;;;;;;;;;;;;20.98;58.74;99586.03;4950292;28;20027;-76
2022/07/29 00:49:26;;;;;;;;;;;;;;;20.94;58.91;99587.09;5015457;28;19933;-76
2022/07/29 00:51:55;;;;;;;;;;;;;;;20.90;59.27;99585.50;5015369;28;19931;-76
2022/07/29 00:54:24;;;;;;;;;;;;;;;20.92;59.47;99582.88;5015638;28;19932;-76
2022/07/29 00:56:52;;;;;;;;;;;;;;;20.90;59.36;99585.50;5015403;28;19980;-77
2022/07/29 00:59:21;;;;;;;;;;;;;;;20.90;59.66;99585.50;5015244;28;19929;-76
2022/07/29 01:01:49;;;;;;;;;;;;;;;20.88;59.77;99589.94;4966161;28;20328;-76
2022/07/29 01:04:19;;;;;;;;;;;;;;;20.83;59.79;99589.28;4997910;28;19932;-77
2022/07/29 01:06:48;;;;;;;;;;;;;;;20.84;59.86;99585.81;5015167;28;19933;-77
2022/07/29 01:09:17;;;;;;;;;;;;;;;20.81;60.03;99588.53;5015134;28;19999;-77
2022/07/29 01:12:04;;;;;;;;;;;;;;;20.80;60.18;99584.25;5015308;28;20291;-76
2022/07/29 01:14:36;;;;;;;;;;;;;;;20.81;60.42;99585.94;4997345;28;19926;-76
2022/07/29 01:17:08;;;;;;;;;;;;;;;20.80;60.68;99581.66;5015065;28;19972;-77
2022/07/29 01:19:48;;;;;;;;;;;;;;;20.77;60.54;99579.19;5014958;28;19925;-77
2022/07/29 01:22:27;;;;;;;;;;;;;;;20.76;60.86;99577.50;4997594;28;19972;-76
2022/07/29 01:25:11;;;;;;;;;;;;;;;20.78;61.03;99578.28;5015171;28;20361;-76
2022/07/29 01:27:42;;;;;;;;;;;;;;;20.80;60.78;99573.88;4994564;28;19952;-76
2022/07/29 01:30:14;;;;;;;;;;;;;;;20.82;61.16;99577.25;5015103;28;20357;-76
2022/07/29 01:32:48;;;;;;;;;;;;;;;20.83;61.19;99573.72;5014908;28;19980;-77
2022/07/29 01:35:20;;;;;;;;;;;;;;;20.83;61.44;99573.72;5015019;28;20359;-76
2022/07/29 01:37:51;;;;;;;;;;;;;;;20.86;60.89;99571.00;5014636;28;20049;-77
2022/07/29 01:40:22;;;;;;;;;;;;;;;20.88;60.66;99576.97;5015015;28;19925;-76
2022/07/29 01:42:52;;;;;;;;;;;;;;;20.91;60.36;99575.97;5014465;28;19976;-75
2022/07/29 01:45:26;;;;;;;;;;;;;;;20.94;60.33;99581.91;5014803;28;19926;-76
2022/07/29 01:48:06;;;;;;;;;;;;;;;20.95;60.20;99582.72;5014464;28;19925;-76
2022/07/29 01:50:36;;;;;;;;;;;;;;;20.99;60.29;99576.50;5014555;28;20375;-76
2022/07/29 01:53:05;;;;;;;;;;;;;;;21.06;60.34;99572.75;5014688;28;19926;-76
2022/07/29 01:55:37;;;;;;;;;;;;;;;21.11;60.06;99571.63;4996855;28;19932;-76
2022/07/29 01:58:07;;;;;;;;;;;;;;;21.07;60.38;99577.84;4996815;28;20264;-76
2022/07/29 02:00:38;;;;;;;;;;;;;;;21.07;60.39;99577.00;5014553;28;20326;-77
2022/07/29 02:03:12;;;;;;;;;;;;;;;21.06;60.32;99571.00;4996767;28;19975;-76
2022/07/29 02:05:42;;;;;;;;;;;;;;;21.06;60.35;99568.41;5014842;28;19929;-76
2022/07/29 02:08:12;;;;;;;;;;;;;;;21.09;60.21;99570.03;5014410;28;19933;-76
2022/07/29 02:10:42;;;;;;;;;;;;;;;21.13;60.26;99569.81;5014252;28;19980;-76
2022/07/29 02:13:12;;;;;;;;;;;;;;;21.14;60.54;99558.50;5013902;28;20015;-76
2022/07/29 02:15:42;;;;;;;;;;;;;;;21.13;60.29;99554.22;5014329;28;19925;-76
2022/07/29 02:18:14;;;;;;;;;;;;;;;21.16;60.26;99561.84;4996633;28;19926;-76
2022/07/29 02:20:45;;;;;;;;;;;;;;;21.16;60.17;99556.66;4996992;28;19972;-77
2022/07/29 02:23:15;;;;;;;;;;;;;;;21.18;60.08;99556.63;5014034;28;19926;-76
2022/07/29 02:25:44;;;;;;;;;;;;;;;21.18;60.18;99560.06;5014103;28;20020;-76
2022/07/29 02:28:14;;;;;;;;;;;;;;;21.21;60.47;99565.09;4996592;28;19932;-75
2022/07/29 02:30:44;;;;;;;;;;;;;;;21.20;60.39;99558.22;5015890;28;19933;-77
2022/07/29 02:33:14;;;;;;;;;;;;;;;21.22;60.36;99560.75;5017977;28;19964;-77
2022/07/29 02:35:44;;;;;;;;;;;;;;;21.20;60.33;99558.22;5018348;28;20026;-76
2022/07/29 02:40:54;;;;;;;;;;;;;;;21.13;60.54;99559.44;5000578;28;19926;-76
2022/07/29 02:43:23;;;;;;;;;;;;;;;21.10;60.44;99569.09;5018010;28;20326;-76
2022/07/29 02:45:54;;;;;;;;;;;;;;;21.11;60.46;99568.19;5017708;28;19996;-77
2022/07/29 02:48:28;;;;;;;;;;;;;;;21.09;60.43;99565.66;5000524;28;19925;-76
2022/07/29 02:51:02;;;;;;;;;;;;;;;21.07;60.59;99572.66;5000492;28;19980;-76
2022/07/29 02:53:34;;;;;;;;;;;;;;;21.04;60.67;99559.78;5017648;28;19932;-76
2022/07/29 02:56:05;;;;;;;;;;;;;;;21.04;60.72;99566.75;5017636;28;19936;-77
2022/07/29 02:58:35;;;;;;;;;;;;;;;21.04;61.19;99562.38;5017519;28;19925;-76
2022/07/29 03:01:09;;;;;;;;;;;;;;;21.01;61.08;99567.72;5000346;28;19925;-76
2022/07/29 03:03:39;;;;;;;;;;;;;;;21.00;61.10;99560.84;5000035;28;19925;-77
2022/07/29 03:06:08;;;;;;;;;;;;;;;20.96;60.92;99567.09;5000086;28;19925;-76
2022/07/29 03:08:58;;;;;;;;;;;;;;;20.94;61.40;99566.31;5000127;28;19956;-77
2022/07/29 03:11:27;;;;;;;;;;;;;;;20.95;61.11;99565.41;5017347;28;19932;-76
2022/07/29 03:14:16;;;;;;;;;;;;;;;20.92;61.22;99562.97;5016941;28;19952;-76
2022/07/29 03:16:47;;;;;;;;;;;;;;;20.94;61.21;99565.47;5017471;28;19932;-77
2022/07/29 03:19:17;;;;;;;;;;;;;;;20.92;61.27;99569.91;5017190;28;19925;-77
2022/07/29 03:21:46;;;;;;;;;;;;;;;20.91;61.19;99575.97;5000139;28;20278;-76
2022/07/29 03:24:26;;;;;;;;;;;;;;;20.89;61.14;99568.28;5017084;28;20383;-77
2022/07/29 03:26:55;;;;;;;;;;;;;;;20.82;61.50;99561.69;5017024;28;19933;-76
2022/07/29 03:29:25;;;;;;;;;;;;;;;20.81;61.49;99559.97;5016913;28;19996;-76
2022/07/29 03:32:03;;;;;;;;;;;;;;;20.80;61.46;99563.50;5017245;28;19930;-76
2022/07/29 03:34:37;;;;;;;;;;;;;;;20.79;61.62;99567.00;5017214;28;20075;-76
2022/07/29 03:37:06;;;;;;;;;;;;;;;20.82;61.78;99571.22;4983176;28;19925;-77
2022/07/29 03:39:40;;;;;;;;;;;;;;;20.85;61.63;99565.91;4999270;28;19925;-76
2022/07/29 03:42:11;;;;;;;;;;;;;;;20.89;61.58;99565.69;5016487;28;19957;-76
2022/07/29 03:44:42;;;;;;;;;;;;;;;20.92;61.58;99565.56;4999293;28;19925;-76
2022/07/29 03:47:14;;;;;;;;;;;;;;;20.92;61.71;99564.72;5016925;28;19926;-76
2022/07/29 03:49:43;;;;;;;;;;;;;;;20.92;61.76;99568.16;4983201;28;19926;-77
2022/07/29 03:52:11;;;;;;;;;;;;;;;20.96;61.98;99564.50;5016847;28;20024;-76
2022/07/29 03:54:40;;;;;;;;;;;;;;;20.96;61.83;99564.50;5016443;28;19972;-76
2022/07/29 03:57:11;;;;;;;;;;;;;;;20.96;61.88;99568.84;5016663;28;19976;-76
2022/07/29 03:59:40;;;;;;;;;;;;;;;21.00;61.75;99566.03;5016635;28;20391;-76
2022/07/29 04:02:11;;;;;;;;;;;;;;;21.01;61.52;99572.94;5016648;28;19975;-76
2022/07/29 04:04:44;;;;;;;;;;;;;;;21.04;61.61;99577.13;5016312;28;20021;-77
2022/07/29 04:07:13;;;;;;;;;;;;;;;21.06;61.53;99575.34;5016227;28;19937;-76
2022/07/29 04:09:42;;;;;;;;;;;;;;;21.06;61.59;99576.19;5016467;28;20374;-76
2022/07/29 04:12:10;;;;;;;;;;;;;;;21.09;61.53;99576.03;5016162;28;19925;-75
2022/07/29 04:14:39;;;;;;;;;;;;;;;21.10;61.23;99572.53;5015983;28;19988;-77
2022/07/29 04:17:07;;;;;;;;;;;;;;;21.16;61.21;99576.63;5016003;28;19925;-76
2022/07/29 04:19:36;;;;;;;;;;;;;;;21.19;61.50;99569.50;5015903;28;20032;-76
2022/07/29 04:22:06;;;;;;;;;;;;;;;21.26;61.35;99573.50;5016225;28;20398;-76
2022/07/29 04:24:35;;;;;;;;;;;;;;;21.28;61.41;99571.69;5015971;28;19980;-76
2022/07/29 04:27:04;;;;;;;;;;;;;;;21.34;61.27;99566.22;5016362;28;19980;-76
2022/07/29 04:29:32;;;;;;;;;;;;;;;21.42;61.14;99570.22;5015857;28;20370;-77
2022/07/29 04:32:01;;;;;;;;;;;;;;;21.48;61.21;99567.31;5015781;28;19932;-76
2022/07/29 04:34:30;;;;;;;;;;;;;;;21.57;60.84;99566.91;5016068;28;20020;-76
2022/07/29 04:36:58;;;;;;;;;;;;;;;21.64;60.74;99560.50;4966387;28;19925;-77
2022/07/29 04:39:29;;;;;;;;;;;;;;;21.70;60.39;99557.59;4998099;28;19925;-77
2022/07/29 04:41:58;;;;;;;;;;;;;;;21.73;60.73;99557.47;4998397;28;19926;-77
2022/07/29 04:44:27;;;;;;;;;;;;;;;21.79;60.70;99560.59;5015491;28;19980;-77
2022/07/29 04:46:57;;;;;;;;;;;;;;;21.88;60.75;99559.38;5015869;28;19926;-76
2022/07/29 04:49:25;;;;;;;;;;;;;;;21.96;60.64;99554.63;5015654;28;20291;-77
2022/07/29 04:51:54;;;;;;;;;;;;;;;22.07;60.30;99564.50;5015657;28;19929;-77
2022/07/29 04:54:23;;;;;;;;;;;;;;;22.15;60.22;99560.59;5014982;28;19952;-77
2022/07/29 04:56:55;;;;;;;;;;;;;;;22.31;59.86;99566.72;5015561;28;20280;-77
2022/07/29 04:59:24;;;;;;;;;;;;;;;22.44;59.52;99567.78;5015465;28;20342;-76
2022/07/29 05:01:53;;;;;;;;;;;;;;;22.48;59.18;99558.88;4997976;28;19929;-77
2022/07/29 05:04:22;;;;;;;;;;;;;;;22.54;58.80;99557.72;5015195;28;19925;-77
2022/07/29 05:06:51;;;;;;;;;;;;;;;22.63;58.63;99563.34;4998065;28;19926;-77
2022/07/29 05:09:19;;;;;;;;;;;;;;;22.68;58.39;99563.94;4997970;28;19975;-78
2022/07/29 05:11:48;;;;;;;;;;;;;;;22.75;58.28;99561.03;4997873;28;19976;-77
2022/07/29 05:14:19;;;;;;;;;;;;;;;22.80;58.13;99559.84;5014846;28;20383;-77
2022/07/29 05:16:50;;;;;;;;;;;;;;;22.95;58.07;99553.00;4997731;28;20347;-76
2022/07/29 05:19:19;;;;;;;;;;;;;;;23.07;57.70;99547.13;5015033;28;19941;-77
2022/07/29 05:21:47;;;;;;;;;;;;;;;23.19;57.44;99552.53;4997608;28;19932;-77
2022/07/29 05:24:17;;;;;;;;;;;;;;;23.31;57.04;99553.63;4981067;28;19976;-76
2022/07/29 05:26:47;;;;;;;;;;;;;;;23.40;57.00;99555.75;5014840;28;20015;-77
2022/07/29 05:29:15;;;;;;;;;;;;;;;23.50;56.64;99551.72;4997242;28;19933;-77
2022/07/29 05:32:06;;;;;;;;;;;;;;;23.63;56.23;99552.72;4997545;28;19925;-78
2022/07/29 05:34:35;;;;;;;;;;;;;;;23.71;55.88;99553.13;5014628;28;20019;-77
2022/07/29 05:37:17;;;;;;;;;;;;;;;23.83;55.43;99556.81;4999747;28;19995;-77
2022/07/29 05:39:46;;;;;;;;;;;;;;;23.94;55.36;99552.69;5014413;28;19925;-77
2022/07/29 05:42:24;;;;;;;;;;;;;;;24.07;54.83;99552.00;5014883;28;20026;-77
2022/07/29 05:44:55;;;;;;;;;;;;;;;24.17;54.38;99553.97;4981689;28;20339;-77
2022/07/29 05:47:25;;;;;;;;;;;;;;;24.25;54.30;99556.13;5014475;28;20023;-77
2022/07/29 05:49:54;;;;;;;;;;;;;;;24.34;54.09;99552.97;4997192;28;19991;-78
2022/07/29 05:52:22;;;;;;;;;;;;;;;24.44;53.80;99556.72;4997490;28;20364;-76
2022/07/29 05:54:51;;;;;;;;;;;;;;;24.54;53.45;99552.66;5014393;28;19968;-75
2022/07/29 05:57:21;;;;;;;;;;;;;;;24.58;53.18;99554.13;4996862;28;19930;-77
2022/07/29 05:59:50;;;;;;;;;;;;;;;24.65;52.98;99551.06;5014191;28;19929;-76
2022/07/29 06:02:19;;;;;;;;;;;;;;;24.78;53.07;99551.22;4980895;28;19926;-76
2022/07/29 06:04:50;;;;;;;;;;;;;;;24.87;52.81;99550.66;5014329;28;19926;-76
2022/07/29 06:07:18;;;;;;;;;;;;;;;24.96;52.24;99555.28;5014292;28;19926;-76
2022/07/29 06:09:47;;;;;;;;;;;;;;;25.09;52.22;99545.78;5014823;28;19925;-76
2022/07/29 06:12:15;;;;;;;;;;;;;;;25.20;51.93;99548.56;5014736;28;20318;-76
2022/07/29 06:14:44;;;;;;;;;;;;;;;25.24;51.35;99557.88;5013940;28;20021;-76
2022/07/29 06:17:12;;;;;;;;;;;;;;;25.30;51.37;99557.50;5014407;28;20338;-76
2022/07/29 06:19:41;;;;;;;;;;;;;;;25.46;51.18;99553.97;5013895;28;19952;-78
2022/07/29 06:22:11;;;;;;;;;;;;;;;25.55;51.00;99558.59;4996962;28;19984;-77
2022/07/29 06:24:43;;;;;;;;;;;;;;;25.68;50.84;99557.69;4996737;28;20015;-75
2022/07/29 06:27:12;;;;;;;;;;;;;;;25.82;50.68;99559.41;5014361;28;20390;-76
2022/07/29 06:29:41;;;;;;;;;;;;;;;25.93;50.28;99560.41;5014231;28;20283;-78
2022/07/29 06:32:10;;;;;;;;;;;;;;;26.11;50.15;99566.22;4996502;28;19926;-78
2022/07/29 06:34:38;;;;;;;;;;;;;;;26.23;49.93;99562.78;4996698;28;19988;-76
2022/07/29 06:37:11;;;;;;;;;;;;;;;26.31;49.43;99565.75;5014067;28;19926;-76
2022/07/29 06:39:43;;;;;;;;;;;;;;;26.47;49.45;99573.41;5013840;28;19932;-76
2022/07/29 06:42:11;;;;;;;;;;;;;;;26.55;49.17;99571.94;4980393;28;19948;-77
2022/07/29 06:44:41;;;;;;;;;;;;;;;26.59;48.58;99568.16;5013844;28;20433;-77
2022/07/29 06:47:10;;;;;;;;;;;;;;;26.65;48.65;99571.31;5013851;28;19926;-77
2022/07/29 06:49:38;;;;;;;;;;;;;;;26.61;48.16;99562.81;5013753;28;19932;-76
2022/07/29 06:52:07;;;;;;;;;;;;;;;26.59;48.20;99573.41;5014135;28;19930;-76
2022/07/29 06:54:38;;;;;;;;;;;;;;;26.70;48.39;99571.84;5014146;28;20405;-76
2022/07/29 06:57:07;;;;;;;;;;;;;;;26.83;48.18;99567.44;4996313;28;19936;-76
2022/07/29 06:59:35;;;;;;;;;;;;;;;26.88;48.45;99570.59;5013605;28;19933;-76
2022/07/29 07:02:04;;;;;;;;;;;;;;;26.98;48.31;99566.41;4980252;28;19926;-76
2022/07/29 07:04:33;;;;;;;;;;;;;;;27.11;48.06;99557.56;5013979;28;19929;-76
2022/07/29 07:07:02;;;;;;;;;;;;;;;27.30;47.64;99556.28;5013609;28;19933;-79
2022/07/29 07:09:31;;;;;;;;;;;;;;;27.48;47.60;99561.06;4980242;28;19930;-80
2022/07/29 07:12:09;;;;;;;;;;;;;;;27.62;46.89;99558.28;5014048;28;19932;-76
2022/07/29 07:14:39;;;;;;;;;;;;;;;27.71;46.37;99560.25;4995947;28;19929;-78
2022/07/29 07:17:08;;;;;;;;;;;;;;;27.85;46.46;99560.09;4998743;28;19929;-79
2022/07/29 07:19:36;;;;;;;;;;;;;;;28.01;46.04;99553.72;4999754;28;20441;-76
2022/07/29 07:22:05;;;;;;;;;;;;;;;27.99;45.70;99550.34;5017764;28;20363;-76
2022/07/29 07:24:33;;;;;;;;;;;;;;;27.99;45.76;99553.81;4999709;28;19980;-76
2022/07/29 07:27:02;;;;;;;;;;;;;;;28.04;45.15;99558.75;4999846;28;19929;-76
2022/07/29 07:29:32;;;;;;;;;;;;;;;28.10;45.17;99553.06;5016903;28;19961;-76
2022/07/29 07:32:01;;;;;;;;;;;;;;;28.23;44.56;99553.78;5017220;28;19925;-76
2022/07/29 07:34:31;;;;;;;;;;;;;;;28.35;44.24;99552.84;5016699;28;19925;-76
2022/07/29 07:36:59;;;;;;;;;;;;;;;28.49;44.23;99560.53;5017072;28;19926;-76
2022/07/29 07:39:28;;;;;;;;;;;;;;;28.56;44.17;99554.69;5016957;28;19926;-76
2022/07/29 07:41:56;;;;;;;;;;;;;;;28.72;43.67;99545.66;5017048;28;19929;-77
2022/07/29 07:44:24;;;;;;;;;;;;;;;28.75;43.41;99551.50;4999536;28;19925;-76
2022/07/29 07:46:55;;;;;;;;;;;;;;;28.81;43.33;99551.06;4999405;28;19979;-76
2022/07/29 07:49:27;;;;;;;;;;;;;;;28.86;42.66;99548.91;5016586;28;19930;-77
2022/07/29 07:51:56;;;;;;;;;;;;;;;28.95;42.68;99545.53;5016822;28;19932;-79
2022/07/29 07:54:25;;;;;;;;;;;;;;;29.03;42.31;99535.25;4999237;28;19931;-79
2022/07/29 07:56:54;;;;;;;;;;;;;;;29.15;43.08;99539.53;4999272;28;19975;-78
2022/07/29 07:59:25;;;;;;;;;;;;;;;29.25;42.48;99538.88;4999685;28;20374;-79
2022/07/29 08:01:55;;;;;;;;;;;;;;;29.40;42.12;99543.72;5016825;28;19926;-79
2022/07/29 08:04:24;;;;;;;;;;;;;;;29.48;41.41;99540.47;4999646;28;19932;-78
2022/07/29 08:06:56;;;;;;;;;;;;;;;29.63;40.93;99534.81;4967353;28;19933;-78
2022/07/29 08:09:26;;;;;;;;;;;;;;;29.80;41.13;99536.09;4999036;28;20414;-78
2022/07/29 08:11:59;;;;;;;;;;;;;;;29.91;40.89;99543.94;5016029;28;20020;-78
2022/07/29 08:14:27;;;;;;;;;;;;;;;30.05;40.61;99535.72;5015710;28;19929;-79
2022/07/29 08:16:58;;;;;;;;;;;;;;;30.15;40.41;99536.63;4999145;28;19960;-78
2022/07/29 08:19:27;;;;;;;;;;;;;;;30.06;39.86;99536.56;4983016;28;19930;-79
2022/07/29 08:21:56;;;;;;;;;;;;;;;30.01;40.10;99536.97;4982317;28;19972;-79
2022/07/29 08:27:03;;;;;;;;;;;;;;;30.21;39.97;99530.84;5015607;28;19925;-76
2022/07/29 08:29:52;;;;;;;;;;;;;;;30.28;39.56;99532.00;4998069;28;19961;-76
2022/07/29 08:32:22;;;;;;;;;;;;;;;30.38;39.72;99532.94;5015722;28;19980;-76
2022/07/29 08:35:10;;;;;;;;;;;;;;;30.37;39.56;99536.53;4998596;28;20017;-76
2022/07/29 08:37:39;;;;;;;;;;;;;;;30.39;39.27;99533.78;5015985;28;20334;-76
2022/07/29 08:40:07;;;;;;;;;;;;;;;30.58;39.64;99533.03;5015803;28;19976;-76
2022/07/29 08:42:36;;;;;;;;;;;;;;;30.58;39.33;99528.59;5016099;28;19952;-76
2022/07/29 08:45:06;;;;;;;;;;;;;;;30.68;38.81;99526.84;4998431;28;19953;-77
2022/07/29 08:47:39;;;;;;;;;;;;;;;30.58;38.39;99525.13;5015576;28;19940;-77
2022/07/29 08:50:08;;;;;;;;;;;;;;;30.58;38.19;99528.59;5015507;28;19972;-77
2022/07/29 08:52:38;;;;;;;;;;;;;;;30.63;38.38;99525.56;5015400;28;20024;-77
2022/07/29 08:55:07;;;;;;;;;;;;;;;30.83;38.06;99527.34;5016032;28;19969;-77
2022/07/29 08:57:36;;;;;;;;;;;;;;;30.87;37.81;99519.03;5015722;28;19930;-77
2022/07/29 09:00:06;;;;;;;;;;;;;;;30.88;37.18;99525.13;5015218;28;19940;-78
2022/07/29 09:02:46;;;;;;;;;;;;;;;30.99;37.41;99517.16;4998485;28;19926;-78
2022/07/29 09:05:18;;;;;;;;;;;;;;;31.16;37.89;99527.06;4981965;28;20471;-78
2022/07/29 09:07:49;;;;;;;;;;;;;;;31.20;36.67;99519.69;4980757;28;20330;-77
2022/07/29 09:10:18;;;;;;;;;;;;;;;31.19;36.47;99518.03;5015095;28;19975;-77
2022/07/29 09:12:47;;;;;;;;;;;;;;;31.39;36.70;99515.28;5015073;28;20091;-77
2022/07/29 09:15:15;;;;;;;;;;;;;;;31.57;36.01;99512.84;5013360;28;19929;-78
2022/07/29 09:17:46;;;;;;;;;;;;;;;31.58;35.86;99515.34;5007189;28;19926;-77
2022/07/29 09:20:16;;;;;;;;;;;;;;;31.59;35.59;99516.19;5002866;28;19996;-77
2022/07/29 09:22:48;;;;;;;;;;;;;;;31.72;35.39;99512.28;5014281;28;20375;-78
2022/07/29 09:25:33;;;;;;;;;;;;;;;31.86;35.13;99513.69;5019868;28;19970;-77
2022/07/29 09:28:08;;;;;;;;;;;;;;;31.83;34.90;99507.84;5019844;28;19926;-78
2022/07/29 09:30:37;;;;;;;;;;;;;;;31.84;34.71;99514.81;5012306;28;20149;-78
2022/07/29 09:33:08;;;;;;;;;;;;;;;31.75;34.59;99508.53;4997115;28;20375;-74
2022/07/29 09:35:36;;;;;;;;;;;;;;;31.73;34.47;99507.84;5015434;28;20379;-81
2022/07/29 09:38:11;;;;;;;;;;;;;;;31.77;34.53;99502.16;4981135;28;20364;-78
2022/07/29 09:40:40;;;;;;;;;;;;;;;31.87;33.92;99504.78;5005504;28;20021;-80
2022/07/29 09:43:13;;;;;;;;;;;;;;;31.86;34.15;99503.13;4993894;28;19935;-78
2022/07/29 09:45:42;;;;;;;;;;;;;;;31.91;34.18;99505.34;5007962;28;19949;-78
2022/07/29 09:48:18;;;;;;;;;;;;;;;31.84;34.35;99499.81;5002655;28;20379;-79
2022/07/29 09:50:49;;;;;;;;;;;;;;;31.73;34.54;99498.13;4994940;28;19926;-79
2022/07/29 09:53:29;;;;;;;;;;;;;;;31.72;35.05;99485.88;4996323;28;19940;-78
2022/07/29 09:55:58;;;;;;;;;;;;;;;31.83;35.11;99487.56;5012334;28;19929;-79
2022/07/29 09:58:26;;;;;;;;;;;;;;;31.77;34.39;99483.66;5005248;28;19929;-77
2022/07/29 10:00:56;;;;;;;;;;;;;;;31.72;34.83;99480.59;5013002;28;19969;-81
2022/07/29 10:03:27;;;;;;;;;;;;;;;31.78;34.67;99477.41;4995032;28;19932;-80
2022/07/29 10:06:06;;;;;;;;;;;;;;;31.93;34.42;99477.81;5014931;28;19929;-79
2022/07/29 10:08:35;;;;;;;;;;;;;;;32.15;34.51;99471.41;4992309;28;19968;-77
2022/07/29 10:11:11;;;;;;;;;;;;;;;32.28;33.72;99482.50;5012404;28;19949;-78
2022/07/29 10:13:41;;;;;;;;;;;;;;;32.37;33.80;99473.72;5014709;28;19929;-78
2022/07/29 10:16:10;;;;;;;;;;;;;;;32.47;33.52;99471.06;5007289;28;19925;-79
2022/07/29 10:18:44;;;;;;;;;;;;;;;32.54;33.04;99472.97;5023919;28;19972;-78
2022/07/29 10:21:13;;;;;;;;;;;;;;;32.64;33.29;99472.94;5022607;28;19933;-79
2022/07/29 10:24:02;;;;;;;;;;;;;;;32.92;32.72;99470.16;4994606;28;19926;-79
2022/07/29 10:26:31;;;;;;;;;;;;;;;33.00;31.97;99456.19;4995333;28;19925;-78
2022/07/29 10:28:59;;;;;;;;;;;;;;;33.07;31.53;99463.41;5013965;28;19925;-77
2022/07/29 10:31:30;;;;;;;;;;;;;;;32.98;31.96;99451.06;5015772;28;20368;-79
2022/07/29 10:34:05;;;;;;;;;;;;;;;32.74;32.14;99453.41;4996565;28;19936;-78
2022/07/29 10:36:42;;;;;;;;;;;;;;;32.70;32.43;99457.34;4995458;28;19971;-78
2022/07/29 10:39:19;;;;;;;;;;;;;;;32.73;32.14;99450.94;4994325;28;20361;-80
2022/07/29 10:42:00;;;;;;;;;;;;;;;32.82;31.66;99450.88;4994802;28;19929;-81
2022/07/29 10:44:31;;;;;;;;;;;;;;;32.61;31.05;99446.81;5013672;28;20011;-79
2022/07/29 10:47:00;;;;;;;;;;;;;;;32.45;31.57;99444.75;5013922;28;19925;-78
2022/07/29 10:49:30;;;;;;;;;;;;;;;32.42;31.91;99442.38;5014158;28;19936;-78
2022/07/29 10:52:03;;;;;;;;;;;;;;;32.51;31.45;99446.84;5016043;28;19952;-78
2022/07/29 10:54:41;;;;;;;;;;;;;;;32.62;31.15;99444.00;5018101;28;19925;-78
2022/07/29 10:57:21;;;;;;;;;;;;;;;32.85;30.92;99439.16;5017595;28;20020;-78
2022/07/29 11:00:20;;;;;;;;;;;;;;;33.09;30.48;99432.34;5016434;28;19926;-79
2022/07/29 11:02:53;;;;;;;;;;;;;;;32.98;30.98;99440.47;5024657;28;20455;-79
2022/07/29 11:05:24;;;;;;;;;;;;;;;32.73;31.19;99435.88;5024086;28;19929;-77
2022/07/29 11:08:17;;;;;;;;;;;;;;;32.54;32.21;99438.59;5023563;28;19925;-80
2022/07/29 11:10:48;;;;;;;;;;;;;;;32.32;32.67;99446.91;5023996;28;19926;-81
2022/07/29 11:13:27;;;;;;;;;;;;;;;32.11;32.67;99438.31;5023779;28;19979;-80
2022/07/29 11:16:05;;;;;;;;;;;;;;;31.95;33.38;99427.50;5027228;28;19925;-80
2022/07/29 11:18:35;;;;;;;;;;;;;;;31.90;33.43;99429.72;5022184;28;20017;-80
2022/07/29 11:21:06;;;;;;;;;;;;;;;31.86;33.46;99433.63;5015780;28;19930;-79
2022/07/29 11:23:38;;;;;;;;;;;;;;;31.78;33.51;99424.63;5008116;28;19925;-79
2022/07/29 11:26:21;;;;;;;;;;;;;;;31.80;33.49;99417.38;5024889;28;19933;-78
2022/07/29 11:29:17;;;;;;;;;;;;;;;32.06;33.47;99422.09;5000675;28;19925;-80
2022/07/29 11:31:48;;;;;;;;;;;;;;;32.21;32.77;99418.84;5016846;28;20311;-79
2022/07/29 11:34:17;;;;;;;;;;;;;;;32.38;32.77;99409.31;5017021;28;19929;-79
2022/07/29 11:36:58;;;;;;;;;;;;;;;32.49;33.28;99417.03;4999557;28;20382;-78
2022/07/29 11:39:29;;;;;;;;;;;;;;;32.58;33.14;99418.00;4999328;28;19951;-79
2022/07/29 11:42:19;;;;;;;;;;;;;;;32.69;32.60;99415.16;5016786;28;19925;-80
2022/07/29 11:45:01;;;;;;;;;;;;;;;33.03;32.55;99417.09;5000765;28;19995;-79
2022/07/29 11:47:52;;;;;;;;;;;;;;;33.41;32.14;99409.81;5016532;28;19936;-79
2022/07/29 11:50:35;;;;;;;;;;;;;;;33.56;32.12;99408.31;4999055;28;19925;-79
2022/07/29 11:53:11;;;;;;;;;;;;;;;33.44;31.77;99410.34;4996954;28;20386;-79
2022/07/29 11:55:41;;;;;;;;;;;;;;;33.25;31.02;99405.22;4999564;28;20339;-79
2022/07/29 11:58:22;;;;;;;;;;;;;;;33.41;31.60;99409.81;5016491;28;20016;-78
2022/07/29 12:00:53;;;;;;;;;;;;;;;33.59;31.49;99418.63;4983026;28;19932;-78
2022/07/29 12:03:25;;;;;;;;;;;;;;;33.37;31.25;99397.88;5016804;28;19972;-78
2022/07/29 12:06:15;;;;;;;;;;;;;;;33.30;31.44;99399.47;5009164;28;19926;-79
2022/07/29 12:08:45;;;;;;;;;;;;;;;33.32;31.47;99397.50;4990766;28;19926;-79
2022/07/29 12:11:20;;;;;;;;;;;;;;;33.20;31.37;99388.13;4995753;28;19926;-78
2022/07/29 12:13:51;;;;;;;;;;;;;;;33.00;31.15;99390.03;5029658;28;19925;-78
2022/07/29 12:16:20;;;;;;;;;;;;;;;32.89;31.49;99383.19;5036362;28;19933;-78
2022/07/29 12:18:58;;;;;;;;;;;;;;;32.98;31.82;99387.56;5018188;28;19925;-79
2022/07/29 12:21:26;;;;;;;;;;;;;;;33.09;31.59;99379.41;5035810;28;19925;-79
2022/07/29 12:23:56;;;;;;;;;;;;;;;33.25;31.39;99377.91;5021337;28;19929;-79
2022/07/29 12:26:37;;;;;;;;;;;;;;;33.43;31.32;99368.97;4995598;28;19930;-79
2022/07/29 12:29:08;;;;;;;;;;;;;;;33.62;31.33;99365.31;5004884;28;19926;-78
2022/07/29 12:31:47;;;;;;;;;;;;;;;33.57;30.86;99370.28;4980968;28;20442;-79
2022/07/29 12:34:16;;;;;;;;;;;;;;;33.33;30.33;99359.47;4998683;28;20379;-80
